createdAt,value
2023-04-15T00:00:22.908Z,11.27
2023-04-15T00:03:23.593Z,11.16
2023-04-15T00:06:06.475Z,11.07
2023-04-15T00:08:47.732Z,11.02
2023-04-15T00:11:49.475Z,10.96
2023-04-15T00:14:28.459Z,10.92
2023-04-15T00:17:26.230Z,10.87
2023-04-15T00:20:02.100Z,10.81
2023-04-15T00:22:41.947Z,10.78
2023-04-15T00:25:47.998Z,10.76
2023-04-15T00:28:40.253Z,10.73
2023-04-15T00:31:30.280Z,10.71
2023-04-15T00:34:23.158Z,10.67
2023-04-15T00:36:56.897Z,10.63
2023-04-15T00:39:33.364Z,10.59
2023-04-15T00:42:12.374Z,10.53
2023-04-15T00:44:48.658Z,10.52
2023-04-15T00:47:29.241Z,10.50
2023-04-15T00:50:15.390Z,10.46
2023-04-15T00:52:49.153Z,10.40
2023-04-15T00:55:22.370Z,10.37
2023-04-15T00:58:02.605Z,10.34
2023-04-15T01:00:49.504Z,10.31
2023-04-15T01:03:25.569Z,10.28
2023-04-15T01:06:03.729Z,10.26
2023-04-15T01:08:38.172Z,10.25
2023-04-15T01:11:14.440Z,10.20
2023-04-15T01:13:51.243Z,10.14
2023-04-15T01:16:29.233Z,10.13
2023-04-15T01:19:03.529Z,10.12
2023-04-15T01:21:52.842Z,10.09
2023-04-15T01:24:58.591Z,10.06
2023-04-15T01:27:48.186Z,10.03
2023-04-15T01:30:26.598Z,10.04
2023-04-15T01:33:03.435Z,10.06
2023-04-15T01:35:41.092Z,10.07
2023-04-15T01:38:31.653Z,10.06
2023-04-15T01:41:07.918Z,10.07
2023-04-15T01:43:43.311Z,10.09
2023-04-15T01:46:18.676Z,10.10
2023-04-15T01:48:56.344Z,10.09
2023-04-15T01:51:37.924Z,10.10
2023-04-15T01:54:12.746Z,10.09
2023-04-15T01:56:49.654Z,10.11
2023-04-15T01:59:28.544Z,10.15
2023-04-15T02:02:07.002Z,10.15
2023-04-15T02:04:51.070Z,10.14
2023-04-15T02:07:32.760Z,10.14
2023-04-15T02:10:12.106Z,10.14
2023-04-15T02:12:48.835Z,10.15
2023-04-15T02:15:31.698Z,10.16
2023-04-15T02:18:13.799Z,10.16
2023-04-15T02:20:57.854Z,10.15
2023-04-15T02:23:35.421Z,10.15
2023-04-15T02:26:21.590Z,10.13
2023-04-15T02:29:01.305Z,10.11
2023-04-15T02:31:42.913Z,10.11
2023-04-15T02:34:20.657Z,10.11
2023-04-15T02:36:58.562Z,10.11
2023-04-15T02:39:40.271Z,10.13
2023-04-15T02:42:13.948Z,10.11
2023-04-15T02:44:57.236Z,10.09
2023-04-15T02:47:40.762Z,10.08
2023-04-15T02:50:24.440Z,10.08
2023-04-15T02:53:12.250Z,10.10
2023-04-15T02:55:54.245Z,10.05
2023-04-15T02:58:35.776Z,10.02
2023-04-15T03:01:26.258Z,10.02
2023-04-15T03:04:11.468Z,10.00
2023-04-15T03:06:47.469Z,9.99
2023-04-15T03:09:32.716Z,10.00
2023-04-15T03:12:28.280Z,9.99
2023-04-15T03:15:07.191Z,9.99
2023-04-15T03:17:53.000Z,9.92
2023-04-15T03:20:51.167Z,9.93
2023-04-15T03:23:23.167Z,9.96
2023-04-15T03:26:07.760Z,9.98
2023-04-15T03:28:46.813Z,10.02
2023-04-15T03:31:20.783Z,10.03
2023-04-15T03:33:55.518Z,10.06
2023-04-15T03:36:38.973Z,10.07
2023-04-15T03:39:17.626Z,10.07
2023-04-15T03:41:53.621Z,10.08
2023-04-15T03:44:33.065Z,10.09
2023-04-15T03:47:07.960Z,10.09
2023-04-15T03:49:49.869Z,10.12
2023-04-15T03:52:29.833Z,10.12
2023-04-15T03:55:05.532Z,10.15
2023-04-15T03:57:50.088Z,10.17
2023-04-15T04:00:25.132Z,10.20
2023-04-15T04:03:04.913Z,10.23
2023-04-15T04:05:51.424Z,10.23
2023-04-15T04:08:47.128Z,10.21
2023-04-15T04:11:20.869Z,10.24
2023-04-15T04:14:00.529Z,10.26
2023-04-15T04:16:36.522Z,10.30
2023-04-15T04:19:09.696Z,10.31
2023-04-15T04:21:50.748Z,10.31
2023-04-15T04:24:36.016Z,10.33
2023-04-15T04:27:19.815Z,10.32
2023-04-15T04:30:08.617Z,10.31
2023-04-15T04:32:46.574Z,10.32
2023-04-15T04:35:27.408Z,10.34
2023-04-15T04:38:07.247Z,10.33
2023-04-15T04:40:57.270Z,10.30
2023-04-15T04:43:37.182Z,10.31
2023-04-15T04:46:13.606Z,10.31
2023-04-15T04:49:04.761Z,10.31
2023-04-15T04:51:46.432Z,10.32
2023-04-15T04:54:36.333Z,10.33
2023-04-15T04:57:22.142Z,10.35
2023-04-15T05:00:11.478Z,10.35
2023-04-15T05:02:55.611Z,10.32
2023-04-15T05:05:44.389Z,10.32
2023-04-15T05:08:51.659Z,10.32
2023-04-15T05:11:40.494Z,10.29
2023-04-15T05:17:15.290Z,10.23
2023-04-15T05:19:49.471Z,10.20
2023-04-15T05:22:23.789Z,10.18
2023-04-15T05:25:04.670Z,10.19
2023-04-15T05:27:38.143Z,10.15
2023-04-15T05:30:22.290Z,10.14
2023-04-15T05:32:59.658Z,10.14
2023-04-15T05:35:57.764Z,10.14
2023-04-15T05:38:50.852Z,10.12
2023-04-15T05:41:36.851Z,10.12
2023-04-15T05:44:58.684Z,10.12
2023-04-15T05:47:34.288Z,10.14
2023-04-15T05:50:26.874Z,10.17
2023-04-15T05:53:41.424Z,10.17
2023-04-15T05:56:50.757Z,10.16
2023-04-15T05:59:29.275Z,10.13
2023-04-15T06:02:46.153Z,10.14
2023-04-15T06:05:51.696Z,10.15
2023-04-15T06:08:47.801Z,10.16
2023-04-15T06:11:34.397Z,10.16
2023-04-15T06:17:23.051Z,10.19
2023-04-15T06:20:23.590Z,10.19
2023-04-15T06:22:56.139Z,10.19
2023-04-15T06:25:50.169Z,10.21
2023-04-15T06:28:53.153Z,10.26
2023-04-15T06:31:41.664Z,10.26
2023-04-15T06:34:30.836Z,10.28
2023-04-15T06:37:23.825Z,10.28
2023-04-15T06:40:01.600Z,10.30
2023-04-15T06:42:40.887Z,10.33
2023-04-15T06:45:22.920Z,10.36
2023-04-15T06:48:06.706Z,10.40
2023-04-15T06:55:24.926Z,10.36
2023-04-15T06:58:23.538Z,10.36
2023-04-15T07:01:03.974Z,10.27
2023-04-15T07:03:40.503Z,10.13
2023-04-15T07:06:15.572Z,10.05
2023-04-15T07:08:51.634Z,10.05
2023-04-15T07:11:32.088Z,10.07
2023-04-15T07:14:12.941Z,10.09
2023-04-15T07:19:48.967Z,10.15
2023-04-15T07:25:26.806Z,10.09
2023-04-15T07:28:00.526Z,10.06
2023-04-15T07:30:33.344Z,10.07
2023-04-15T07:33:05.915Z,10.08
2023-04-15T07:35:38.485Z,10.10
2023-04-15T07:38:14.055Z,10.12
2023-04-15T07:40:51.508Z,10.16
2023-04-15T07:43:33.237Z,10.16
2023-04-15T07:46:33.931Z,10.11
2023-04-15T07:49:12.488Z,10.08
2023-04-15T07:51:50.966Z,10.10
2023-04-15T07:54:48.310Z,10.14
2023-04-15T07:57:24.992Z,10.12
2023-04-15T08:00:07.563Z,10.09
2023-04-15T08:02:55.032Z,10.05
2023-04-15T08:06:00.109Z,10.01
2023-04-15T08:08:34.122Z,10.03
2023-04-15T08:11:12.564Z,10.04
2023-04-15T08:14:15.207Z,9.97
2023-04-15T08:16:53.362Z,9.85
2023-04-15T08:19:46.100Z,9.88
2023-04-15T08:22:27.723Z,10.03
2023-04-15T08:25:13.872Z,10.20
2023-04-15T08:28:03.664Z,10.39
2023-04-15T08:30:45.799Z,10.52
2023-04-15T08:33:33.728Z,10.60
2023-04-15T08:36:20.920Z,10.66
2023-04-15T08:39:02.934Z,10.66
2023-04-15T08:42:09.979Z,10.58
2023-04-15T08:44:52.183Z,10.50
2023-04-15T08:47:47.035Z,10.49
2023-04-15T08:50:41.657Z,10.45
2023-04-15T08:53:35.096Z,10.44
2023-04-15T08:56:43.792Z,10.33
2023-04-15T08:59:43.353Z,10.28
2023-04-15T09:02:39.961Z,10.34
2023-04-15T09:05:35.146Z,10.43
2023-04-15T09:08:13.332Z,10.50
2023-04-15T09:10:55.360Z,10.56
2023-04-15T09:14:20.298Z,10.60
2023-04-15T09:17:10.290Z,10.62
2023-04-15T09:19:44.520Z,10.64
2023-04-15T09:22:33.825Z,10.67
2023-04-15T09:25:25.561Z,10.72
2023-04-15T09:28:02.884Z,10.73
2023-04-15T09:30:41.002Z,10.70
2023-04-15T09:33:18.695Z,10.70
2023-04-15T09:36:13.774Z,10.76
2023-04-15T09:39:03.958Z,10.82
2023-04-15T09:42:21.299Z,10.89
2023-04-15T09:44:56.095Z,10.95
2023-04-15T09:47:46.643Z,11.03
2023-04-15T09:51:04.429Z,11.09
2023-04-15T09:53:49.691Z,11.09
2023-04-15T09:56:29.911Z,11.12
2023-04-15T09:59:37.757Z,11.19
2023-04-15T10:02:38.985Z,11.24
2023-04-15T10:08:44.261Z,11.29
2023-04-15T10:11:28.310Z,11.36
2023-04-15T10:14:33.133Z,11.34
2023-04-15T10:17:31.787Z,11.39
2023-04-15T10:20:38.459Z,11.47
2023-04-15T10:23:37.186Z,11.54
2023-04-15T10:26:27.221Z,11.65
2023-04-15T10:29:22.199Z,11.75
2023-04-15T10:32:17.259Z,11.87
2023-04-15T10:35:10.434Z,12.01
2023-04-15T10:37:49.239Z,12.12
2023-04-15T10:40:36.857Z,12.23
2023-04-15T10:43:48.257Z,12.28
2023-04-15T10:46:49.624Z,12.32
2023-04-15T10:49:50.504Z,12.31
2023-04-15T10:52:30.744Z,12.34
2023-04-15T10:55:52.822Z,12.39
2023-04-15T10:59:31.411Z,12.41
2023-04-15T11:02:12.636Z,12.42
2023-04-15T11:04:58.284Z,12.44
2023-04-15T11:10:58.482Z,12.46
2023-04-15T11:14:07.878Z,12.42
2023-04-15T11:17:01.321Z,12.38
2023-04-15T11:19:47.670Z,12.36
2023-04-15T11:22:28.476Z,12.38
2023-04-15T11:25:11.349Z,12.44
2023-04-15T11:28:01.500Z,12.48
2023-04-15T11:31:09.629Z,12.45
2023-04-15T11:34:11.444Z,12.38
2023-04-15T11:37:22.101Z,12.30
2023-04-15T11:40:17.699Z,12.25
2023-04-15T11:43:48.882Z,12.21
2023-04-15T11:49:48.142Z,12.12
2023-04-15T11:52:22.847Z,12.10
2023-04-15T11:55:14.576Z,12.01
2023-04-15T11:57:52.760Z,11.93
2023-04-15T12:04:07.924Z,11.91
2023-04-15T12:07:01.791Z,11.92
2023-04-15T12:09:40.268Z,12.00
2023-04-15T12:12:41.635Z,12.05
2023-04-15T12:15:21.938Z,12.05
2023-04-15T12:17:57.048Z,12.03
2023-04-15T12:20:44.940Z,12.03
2023-04-15T12:23:22.775Z,12.07
2023-04-15T12:25:53.399Z,12.06
2023-04-15T12:28:44.463Z,12.03
2023-04-15T12:31:29.094Z,12.05
2023-04-15T12:38:07.036Z,12.14
2023-04-15T12:41:04.036Z,12.23
2023-04-15T12:43:42.614Z,12.34
2023-04-15T12:46:14.322Z,12.31
2023-04-15T12:49:08.853Z,12.28
2023-04-15T12:52:16.704Z,12.33
2023-04-15T12:55:05.287Z,12.41
2023-04-15T12:58:05.166Z,12.55
2023-04-15T13:02:06.051Z,12.59
2023-04-15T13:05:19.389Z,12.43
2023-04-15T13:08:12.148Z,12.37
2023-04-15T13:11:21.076Z,12.45
2023-04-15T13:14:01.220Z,12.51
2023-04-15T13:16:51.528Z,12.60
2023-04-15T13:19:40.060Z,12.69
2023-04-15T13:22:23.156Z,12.80
2023-04-15T13:24:55.585Z,12.89
2023-04-15T13:27:34.081Z,12.95
2023-04-15T13:33:18.810Z,13.08
2023-04-15T13:36:00.768Z,13.12
2023-04-15T13:38:52.784Z,13.18
2023-04-15T13:41:35.508Z,13.30
2023-04-15T13:44:17.371Z,13.42
2023-04-15T13:47:04.237Z,13.50
2023-04-15T13:49:57.097Z,13.54
2023-04-15T13:52:31.849Z,13.59
2023-04-15T13:55:20.419Z,13.64
2023-04-15T13:58:02.416Z,13.64
2023-04-15T14:00:36.012Z,13.68
2023-04-15T14:03:53.402Z,13.65
2023-04-15T14:06:56.080Z,13.61
2023-04-15T14:09:59.332Z,13.59
2023-04-15T14:12:59.964Z,13.58
2023-04-15T14:15:48.646Z,13.62
2023-04-15T14:18:45.813Z,13.58
2023-04-15T14:21:24.376Z,13.43
2023-04-15T14:24:02.184Z,13.37
2023-04-15T14:26:46.278Z,13.28
2023-04-15T14:29:32.386Z,13.20
2023-04-15T14:32:17.356Z,13.23
2023-04-15T14:35:31.980Z,13.25
2023-04-15T14:38:23.024Z,13.22
2023-04-15T14:40:58.450Z,13.23
2023-04-15T14:43:40.011Z,13.20
2023-04-15T14:46:42.143Z,13.16
2023-04-15T14:49:24.310Z,13.13
2023-04-15T14:52:10.547Z,13.11
2023-04-15T14:54:50.189Z,13.02
2023-04-15T14:57:41.869Z,12.91
2023-04-15T15:03:44.173Z,12.90
2023-04-15T15:06:27.938Z,12.88
2023-04-15T15:09:10.936Z,12.83
2023-04-15T15:11:53.742Z,12.81
2023-04-15T15:14:35.642Z,12.83
2023-04-15T15:17:26.072Z,12.83
2023-04-15T15:20:20.382Z,12.87
2023-04-15T15:23:06.210Z,12.89
2023-04-15T15:26:11.517Z,12.88
2023-04-15T15:28:54.071Z,12.86
2023-04-15T15:31:36.110Z,12.82
2023-04-15T15:34:10.885Z,12.80
2023-04-15T15:36:46.985Z,12.82
2023-04-15T15:39:30.810Z,12.83
2023-04-15T15:42:08.326Z,12.76
2023-04-15T15:44:47.412Z,12.72
2023-04-15T15:47:32.268Z,12.63
2023-04-15T15:50:21.706Z,12.58
2023-04-15T15:53:13.025Z,12.51
2023-04-15T15:55:59.844Z,12.43
2023-04-15T15:58:37.793Z,12.42
2023-04-15T16:01:21.294Z,12.41
2023-04-15T16:03:54.503Z,12.37
2023-04-15T16:06:27.801Z,12.31
2023-04-15T16:09:03.035Z,12.28
2023-04-15T16:11:44.617Z,12.26
2023-04-15T16:14:34.413Z,12.22
2023-04-15T16:17:45.556Z,12.20
2023-04-15T16:21:02.649Z,12.13
2023-04-15T16:23:40.848Z,12.08
2023-04-15T16:26:16.697Z,12.07
2023-04-15T16:28:49.536Z,12.06
2023-04-15T16:31:27.141Z,12.03
2023-04-15T16:34:17.811Z,12.01
2023-04-15T16:36:57.467Z,12.00
2023-04-15T16:39:27.572Z,11.97
2023-04-15T16:42:00.612Z,11.92
2023-04-15T16:44:46.197Z,11.89
2023-04-15T16:47:28.865Z,11.87
2023-04-15T16:50:02.078Z,11.88
2023-04-15T16:52:34.006Z,11.86
2023-04-15T16:55:05.777Z,11.87
2023-04-15T16:58:03.178Z,11.87
2023-04-15T17:00:45.830Z,11.83
2023-04-15T17:03:22.222Z,11.82
2023-04-15T17:05:57.017Z,11.82
2023-04-15T17:08:29.573Z,11.81
2023-04-15T17:11:00.682Z,11.79
2023-04-15T17:13:46.525Z,11.79
2023-04-15T17:16:26.793Z,11.76
2023-04-15T17:19:11.534Z,11.74
2023-04-15T17:21:58.431Z,11.66
2023-04-15T17:24:41.455Z,11.66
2023-04-15T17:27:27.865Z,11.68
2023-04-15T17:30:09.242Z,11.69
2023-04-15T17:32:44.700Z,11.68
2023-04-15T17:35:21.933Z,11.58
2023-04-15T17:38:01.975Z,11.56
2023-04-15T17:40:39.999Z,11.58
2023-04-15T17:43:14.070Z,11.60
2023-04-15T17:45:58.809Z,11.61
2023-04-15T17:48:40.626Z,11.62
2023-04-15T17:51:29.697Z,11.61
2023-04-15T17:54:16.818Z,11.61
2023-04-15T17:57:32.768Z,11.62
2023-04-15T18:00:29.493Z,11.61
2023-04-15T18:03:25.966Z,11.61
2023-04-15T18:25:04.970Z,12.78
2023-04-15T18:28:01.280Z,12.87
2023-04-15T18:31:32.805Z,12.30
2023-04-15T18:34:25.565Z,11.96
2023-04-15T18:37:33.663Z,11.68
2023-04-15T18:40:51.029Z,11.46
2023-04-15T19:02:34.287Z,10.64
2023-04-15T19:05:32.652Z,10.55
2023-04-15T19:08:30.525Z,10.48
2023-04-15T19:11:38.536Z,10.42
2023-04-15T19:14:25.626Z,10.35
2023-04-15T19:17:05.164Z,10.31
2023-04-15T19:20:08.991Z,10.26
2023-04-15T19:23:33.649Z,10.19
2023-04-15T19:26:25.284Z,10.10
2023-04-15T19:32:24.938Z,10.00
2023-04-15T19:35:26.434Z,9.97
2023-04-15T19:38:16.373Z,9.94
2023-04-15T19:41:17.267Z,9.91
2023-04-15T19:44:22.077Z,9.88
2023-04-15T19:47:28.628Z,9.86
2023-04-15T19:50:16.338Z,9.85
2023-04-15T19:53:23.817Z,9.84
2023-04-15T19:56:28.822Z,9.81
2023-04-15T19:59:51.871Z,9.79
2023-04-15T20:03:11.585Z,9.76
2023-04-15T20:06:02.604Z,9.71
2023-04-15T20:08:45.665Z,9.70
2023-04-15T20:12:46.851Z,9.69
2023-04-15T20:14:41.951Z,9.63
2023-04-15T20:17:34.721Z,9.61
2023-04-15T20:20:29.707Z,9.57
2023-04-15T20:23:18.285Z,9.54
2023-04-15T20:26:10.431Z,9.54
2023-04-15T20:29:00.402Z,9.54
2023-04-15T20:31:48.957Z,9.51
2023-04-15T20:34:42.944Z,9.47
2023-04-15T20:37:39.442Z,9.40
2023-04-15T20:40:27.784Z,9.31
2023-04-15T20:43:27.899Z,9.22
2023-04-15T20:46:34.381Z,9.14
2023-04-15T20:49:56.146Z,9.06
2023-04-15T20:52:39.275Z,9.00
2023-04-15T20:55:28.332Z,8.94
2023-04-15T20:58:29.338Z,8.86
2023-04-15T21:01:05.590Z,8.81
2023-04-15T21:07:00.384Z,8.73
2023-04-15T21:10:09.191Z,8.68
2023-04-15T21:13:29.749Z,8.54
2023-04-15T21:16:39.084Z,8.49
2023-04-15T21:19:38.048Z,8.47
2023-04-15T21:26:15.048Z,8.41
2023-04-15T21:29:47.327Z,8.33
2023-04-15T21:42:52.908Z,8.14
2023-04-15T21:46:21.440Z,8.14
2023-04-15T21:49:15.492Z,8.08
2023-04-15T21:52:33.425Z,8.05
2023-04-15T21:55:38.635Z,8.00
2023-04-15T21:58:50.172Z,7.96
2023-04-15T22:05:58.566Z,7.95
2023-04-15T22:09:03.340Z,7.99
2023-04-15T22:11:58.902Z,7.96
2023-04-15T22:15:00.414Z,8.01
2023-04-15T22:21:06.001Z,8.09
2023-04-15T22:23:46.839Z,8.12
2023-04-15T22:26:56.242Z,8.06
2023-04-15T22:30:15.014Z,8.05
2023-04-15T22:33:08.394Z,8.03
2023-04-15T22:36:09.278Z,7.98
2023-04-15T22:39:24.919Z,7.92
2023-04-15T22:45:45.731Z,7.79
2023-04-15T22:48:42.802Z,7.77
2023-04-15T22:51:39.788Z,7.75
2023-04-15T22:54:32.416Z,7.74
2023-04-15T22:57:28.843Z,7.75
2023-04-15T23:00:18.624Z,7.74
2023-04-15T23:02:56.486Z,7.73
2023-04-15T23:06:01.504Z,7.71
2023-04-15T23:08:50.647Z,7.64
2023-04-15T23:11:40.510Z,7.61
2023-04-15T23:14:37.309Z,7.61
2023-04-15T23:17:27.348Z,7.58
2023-04-15T23:20:10.733Z,7.50
2023-04-15T23:22:52.286Z,7.41
2023-04-15T23:25:38.342Z,7.34
2023-04-15T23:28:43.595Z,7.29
2023-04-15T23:31:16.493Z,7.26
2023-04-15T23:33:58.744Z,7.24
2023-04-15T23:36:59.678Z,7.16
2023-04-15T23:39:48.704Z,7.12
2023-04-15T23:42:29.523Z,7.09
2023-04-15T23:45:27.105Z,7.05
2023-04-15T23:48:11.476Z,7.03
2023-04-15T23:51:07.734Z,7.02
2023-04-15T23:53:56.068Z,7.00
2023-04-15T23:56:55.021Z,6.91
2023-04-15T23:59:49.640Z,6.91
